createdAt,value
2023-03-01T00:02:11.883Z,-0.05
2023-03-01T00:04:38.509Z,0.01
2023-03-01T00:07:04.975Z,-0.00
2023-03-01T00:09:31.873Z,-0.03
2023-03-01T00:11:58.280Z,-0.22
2023-03-01T00:14:24.727Z,-0.27
2023-03-01T00:16:51.247Z,-0.24
2023-03-01T00:19:17.763Z,-0.25
2023-03-01T00:21:44.341Z,-0.49
2023-03-01T00:24:10.938Z,-0.54
2023-03-01T00:26:37.370Z,-0.69
2023-03-01T00:29:03.833Z,-0.86
2023-03-01T00:31:30.317Z,-1.16
2023-03-01T00:33:56.742Z,-0.87
2023-03-01T00:36:23.148Z,-0.51
2023-03-01T00:38:49.791Z,-0.58
2023-03-01T00:41:16.318Z,-0.48
2023-03-01T00:43:43.354Z,-0.46
2023-03-01T00:46:09.838Z,-0.47
2023-03-01T00:48:37.519Z,-0.43
2023-03-01T00:51:03.971Z,-0.42
2023-03-01T00:53:30.399Z,-0.51
2023-03-01T00:55:58.984Z,-0.67
2023-03-01T00:58:25.409Z,-0.63
2023-03-01T01:00:57.524Z,-0.60
2023-03-01T01:03:24.020Z,-0.61
2023-03-01T01:05:50.520Z,-0.63
2023-03-01T01:08:16.942Z,-0.70
2023-03-01T01:10:43.328Z,-0.76
2023-03-01T01:13:09.783Z,-0.84
2023-03-01T01:15:36.281Z,-0.94
2023-03-01T01:18:02.779Z,-0.87
2023-03-01T01:20:29.204Z,-0.77
2023-03-01T01:22:55.850Z,-0.79
2023-03-01T01:25:22.324Z,-0.75
2023-03-01T01:27:48.707Z,-0.71
2023-03-01T01:30:15.171Z,-0.72
2023-03-01T01:32:41.702Z,-0.72
2023-03-01T01:35:08.197Z,-0.96
2023-03-01T01:37:34.673Z,-1.16
2023-03-01T01:40:01.096Z,-1.29
2023-03-01T01:42:27.518Z,-1.41
2023-03-01T01:44:53.935Z,-1.26
2023-03-01T01:47:20.417Z,-1.06
2023-03-01T01:49:46.891Z,-0.90
2023-03-01T01:52:13.367Z,-0.79
2023-03-01T01:54:39.960Z,-0.73
2023-03-01T01:57:06.433Z,-0.56
2023-03-01T01:59:32.830Z,-0.45
2023-03-01T02:01:59.343Z,-0.37
2023-03-01T02:04:25.729Z,-0.37
2023-03-01T02:06:52.330Z,-0.45
2023-03-01T02:09:19.000Z,-0.46
2023-03-01T02:11:45.577Z,-0.53
2023-03-01T02:14:11.960Z,-0.67
2023-03-01T02:16:38.625Z,-0.59
2023-03-01T02:19:05.185Z,-0.67
2023-03-01T02:21:31.627Z,-0.61
2023-03-01T02:23:58.020Z,-0.42
2023-03-01T02:26:24.501Z,-0.31
2023-03-01T02:28:50.983Z,-0.21
2023-03-01T02:31:17.506Z,-0.20
2023-03-01T02:33:43.968Z,-0.52
2023-03-01T02:36:10.373Z,-0.43
2023-03-01T02:38:36.837Z,-0.47
2023-03-01T02:41:03.332Z,-0.57
2023-03-01T02:43:29.795Z,-0.69
2023-03-01T02:45:56.393Z,-0.64
2023-03-01T02:48:23.094Z,-0.68
2023-03-01T02:50:49.532Z,-0.61
2023-03-01T02:53:16.038Z,-0.49
2023-03-01T02:55:42.450Z,-0.37
2023-03-01T02:58:08.892Z,-0.21
2023-03-01T03:00:35.633Z,-0.17
2023-03-01T03:03:02.481Z,-0.20
2023-03-01T03:05:28.927Z,-0.17
2023-03-01T03:07:55.466Z,-0.27
2023-03-01T03:10:21.875Z,-0.24
2023-03-01T03:12:50.666Z,-0.20
2023-03-01T03:15:17.946Z,-0.18
2023-03-01T03:17:46.209Z,-0.14
2023-03-01T03:20:12.949Z,-0.11
2023-03-01T03:22:40.596Z,-0.16
2023-03-01T03:25:07.017Z,-0.12
2023-03-01T03:27:33.460Z,0.21
2023-03-01T03:29:59.860Z,-0.10
2023-03-01T03:32:27.666Z,-0.16
2023-03-01T03:34:54.590Z,-0.20
2023-03-01T03:37:21.653Z,-0.09
2023-03-01T03:39:48.109Z,-0.11
2023-03-01T03:42:17.086Z,-0.12
2023-03-01T03:44:43.471Z,-0.22
2023-03-01T03:47:10.156Z,-0.26
2023-03-01T03:49:36.672Z,-0.25
2023-03-01T03:52:03.133Z,-0.21
2023-03-01T03:54:29.555Z,-0.26
2023-03-01T03:56:55.968Z,-0.24
2023-03-01T03:59:22.468Z,-0.22
2023-03-01T04:01:48.907Z,-0.26
2023-03-01T04:04:15.510Z,-0.25
2023-03-01T04:06:41.975Z,-0.22
2023-03-01T04:09:08.719Z,-0.14
2023-03-01T04:11:35.613Z,-0.02
2023-03-01T04:14:04.460Z,-0.04
2023-03-01T04:16:31.293Z,-0.05
2023-03-01T04:19:00.343Z,-0.04
2023-03-01T04:21:26.812Z,-0.01
2023-03-01T04:23:53.778Z,0.04
2023-03-01T04:26:20.391Z,-0.03
2023-03-01T04:28:48.306Z,-0.03
2023-03-01T04:31:14.969Z,0.05
2023-03-01T04:33:41.505Z,0.03
2023-03-01T04:36:08.207Z,0.26
2023-03-01T04:38:34.772Z,0.15
2023-03-01T04:41:01.706Z,-0.02
2023-03-01T04:43:28.313Z,-0.02
2023-03-01T04:45:55.325Z,-0.12
2023-03-01T04:48:21.850Z,-0.08
2023-03-01T04:50:48.269Z,-0.09
2023-03-01T04:53:14.985Z,-0.14
2023-03-01T04:55:41.363Z,-0.16
2023-03-01T04:58:07.895Z,-0.21
2023-03-01T05:00:34.332Z,-0.06
2023-03-01T05:03:01.019Z,-0.11
2023-03-01T05:05:27.770Z,-0.19
2023-03-01T05:07:54.318Z,-0.12
2023-03-01T05:10:20.716Z,-0.14
2023-03-01T05:12:47.305Z,-0.13
2023-03-01T05:15:13.922Z,-0.18
2023-03-01T05:17:40.645Z,-0.23
2023-03-01T05:20:07.502Z,-0.22
2023-03-01T05:22:33.914Z,-0.19
2023-03-01T05:25:00.406Z,-0.24
2023-03-01T05:27:26.853Z,-0.18
2023-03-01T05:29:53.246Z,-0.18
2023-03-01T05:32:19.742Z,-0.13
2023-03-01T05:34:46.184Z,-0.11
2023-03-01T05:37:12.808Z,-0.07
2023-03-01T05:39:39.280Z,-0.02
2023-03-01T05:42:05.771Z,-0.07
2023-03-01T05:44:32.205Z,0.01
2023-03-01T05:46:58.637Z,0.03
2023-03-01T05:49:25.093Z,0.03
2023-03-01T05:51:51.469Z,0.01
2023-03-01T05:54:17.845Z,0.05
2023-03-01T05:56:44.414Z,0.08
2023-03-01T05:59:10.901Z,0.07
2023-03-01T06:01:37.313Z,0.11
2023-03-01T06:04:03.832Z,0.05
2023-03-01T06:06:30.791Z,-0.07
2023-03-01T06:08:57.557Z,0.05
2023-03-01T06:11:24.077Z,0.16
2023-03-01T06:13:50.512Z,0.19
2023-03-01T06:16:17.005Z,0.21
2023-03-01T06:18:43.449Z,0.25
2023-03-01T06:21:09.841Z,0.07
2023-03-01T06:23:36.325Z,0.33
2023-03-01T06:26:02.786Z,0.32
2023-03-01T06:28:29.280Z,0.56
2023-03-01T06:30:55.795Z,0.39
2023-03-01T06:33:22.284Z,0.30
2023-03-01T06:35:48.792Z,0.35
2023-03-01T06:38:15.231Z,0.15
2023-03-01T06:40:41.703Z,0.14
2023-03-01T06:43:08.194Z,0.19
2023-03-01T06:45:34.732Z,0.14
2023-03-01T06:48:01.116Z,0.17
2023-03-01T06:50:27.544Z,0.40
2023-03-01T06:52:53.944Z,0.29
2023-03-01T06:55:20.366Z,0.21
2023-03-01T06:57:46.749Z,0.55
2023-03-01T07:00:13.212Z,1.12
2023-03-01T07:02:39.725Z,1.73
2023-03-01T07:05:06.170Z,2.21
2023-03-01T07:07:32.783Z,2.54
2023-03-01T07:09:59.186Z,2.32
2023-03-01T07:12:25.644Z,1.94
2023-03-01T07:14:52.110Z,1.74
2023-03-01T07:17:19.051Z,1.47
2023-03-01T07:19:45.444Z,1.41
2023-03-01T07:22:11.862Z,1.39
2023-03-01T07:24:38.365Z,1.59
2023-03-01T07:27:04.748Z,1.47
2023-03-01T07:29:31.217Z,1.29
2023-03-01T07:31:57.640Z,1.34
2023-03-01T07:34:24.112Z,1.36
2023-03-01T07:36:50.570Z,1.16
2023-03-01T07:39:18.600Z,0.87
2023-03-01T07:41:46.048Z,1.06
2023-03-01T07:44:12.630Z,0.94
2023-03-01T07:46:39.013Z,1.01
2023-03-01T07:49:05.496Z,0.93
2023-03-01T07:51:31.975Z,0.97
2023-03-01T07:53:58.740Z,1.00
2023-03-01T07:56:25.189Z,1.16
2023-03-01T07:58:51.663Z,1.13
2023-03-01T08:01:18.090Z,1.19
2023-03-01T08:03:44.617Z,1.05
2023-03-01T08:06:11.126Z,1.17
2023-03-01T08:08:37.549Z,1.13
2023-03-01T08:11:03.937Z,1.37
2023-03-01T08:13:30.401Z,1.28
2023-03-01T08:15:56.786Z,1.17
2023-03-01T08:18:23.211Z,1.04
2023-03-01T08:20:49.796Z,1.28
2023-03-01T08:23:16.312Z,1.34
2023-03-01T08:25:42.915Z,1.37
2023-03-01T08:28:09.287Z,1.41
2023-03-01T08:30:35.719Z,1.57
2023-03-01T08:33:02.170Z,1.64
2023-03-01T08:35:28.671Z,1.75
2023-03-01T08:37:55.168Z,1.73
2023-03-01T08:40:21.917Z,1.78
2023-03-01T08:42:48.393Z,2.00
2023-03-01T08:45:14.921Z,2.04
2023-03-01T08:47:41.312Z,2.07
2023-03-01T08:50:07.748Z,2.08
2023-03-01T08:52:34.224Z,2.23
2023-03-01T08:55:00.621Z,2.44
2023-03-01T08:57:27.074Z,2.53
2023-03-01T08:59:53.623Z,2.51
2023-03-01T09:02:20.067Z,2.53
2023-03-01T09:04:46.797Z,2.28
2023-03-01T09:07:13.277Z,2.20
2023-03-01T09:09:39.687Z,2.24
2023-03-01T09:12:06.135Z,2.42
2023-03-01T09:14:32.551Z,2.47
2023-03-01T09:16:59.068Z,2.43
2023-03-01T09:19:27.361Z,2.45
2023-03-01T09:21:53.867Z,2.20
2023-03-01T09:24:20.273Z,2.15
2023-03-01T09:26:46.706Z,2.58
2023-03-01T09:29:13.200Z,2.76
2023-03-01T09:31:39.786Z,2.78
2023-03-01T09:34:06.268Z,2.91
2023-03-01T09:36:33.093Z,3.14
2023-03-01T09:38:59.750Z,2.94
2023-03-01T09:41:26.269Z,2.72
2023-03-01T09:43:54.713Z,2.85
2023-03-01T09:46:22.562Z,2.97
2023-03-01T09:48:49.026Z,3.12
2023-03-01T09:51:15.510Z,3.18
2023-03-01T09:53:41.938Z,3.01
2023-03-01T09:56:08.807Z,3.15
2023-03-01T09:58:35.375Z,3.07
2023-03-01T10:01:01.798Z,2.89
2023-03-01T10:03:28.442Z,3.02
2023-03-01T10:05:54.860Z,3.16
2023-03-01T10:08:22.373Z,3.26
2023-03-01T10:10:48.835Z,3.41
2023-03-01T10:13:15.622Z,3.44
2023-03-01T10:15:42.131Z,3.29
2023-03-01T10:18:08.913Z,3.21
2023-03-01T10:20:35.351Z,3.47
2023-03-01T10:23:01.835Z,3.26
2023-03-01T10:25:28.221Z,3.47
2023-03-01T10:27:54.864Z,3.64
2023-03-01T10:30:21.393Z,3.54
2023-03-01T10:32:47.819Z,3.63
2023-03-01T10:35:14.353Z,3.71
2023-03-01T10:37:40.781Z,3.78
2023-03-01T10:40:07.440Z,3.94
2023-03-01T10:42:34.338Z,3.99
2023-03-01T10:45:00.823Z,3.79
2023-03-01T10:47:27.205Z,3.66
2023-03-01T10:49:53.839Z,3.65
2023-03-01T10:52:21.787Z,3.24
2023-03-01T10:54:48.254Z,3.53
2023-03-01T10:57:14.689Z,3.63
2023-03-01T10:59:41.224Z,3.77
2023-03-01T11:02:22.222Z,4.03
2023-03-01T11:04:50.432Z,3.79
2023-03-01T11:07:16.898Z,3.94
2023-03-01T11:09:43.348Z,4.13
2023-03-01T11:12:09.755Z,4.08
2023-03-01T11:14:36.239Z,4.22
2023-03-01T11:17:02.686Z,4.26
2023-03-01T11:19:29.090Z,4.16
2023-03-01T11:21:55.558Z,4.14
2023-03-01T11:24:21.977Z,4.19
2023-03-01T11:26:48.381Z,4.05
2023-03-01T11:29:14.938Z,4.15
2023-03-01T11:31:52.363Z,3.95
2023-03-01T11:34:23.476Z,4.17
2023-03-01T11:36:49.900Z,4.02
2023-03-01T11:39:16.426Z,4.08
2023-03-01T11:41:42.850Z,4.36
2023-03-01T11:44:09.246Z,4.54
2023-03-01T11:46:35.704Z,4.41
2023-03-01T11:49:02.219Z,4.40
2023-03-01T11:51:28.973Z,4.47
2023-03-01T11:53:55.395Z,4.61
2023-03-01T11:56:23.856Z,4.56
2023-03-01T11:58:50.877Z,4.63
2023-03-01T12:01:18.103Z,4.70
2023-03-01T12:03:44.507Z,4.71
2023-03-01T12:06:10.999Z,4.72
2023-03-01T12:08:37.478Z,4.66
2023-03-01T12:11:03.949Z,4.69
2023-03-01T12:13:30.423Z,4.59
2023-03-01T12:15:57.154Z,4.57
2023-03-01T12:18:23.595Z,4.58
2023-03-01T12:20:50.082Z,4.64
2023-03-01T12:23:20.673Z,4.87
2023-03-01T12:25:47.622Z,4.88
2023-03-01T12:28:14.318Z,4.96
2023-03-01T12:30:41.179Z,4.93
2023-03-01T12:33:07.686Z,4.70
2023-03-01T12:35:34.246Z,4.95
2023-03-01T12:38:00.639Z,4.90
2023-03-01T12:40:27.092Z,4.89
2023-03-01T12:42:54.061Z,5.11
2023-03-01T12:45:20.500Z,5.12
2023-03-01T12:47:46.925Z,5.27
2023-03-01T12:50:13.436Z,5.11
2023-03-01T12:52:39.895Z,5.13
2023-03-01T12:55:07.373Z,5.31
2023-03-01T12:57:33.970Z,5.38
2023-03-01T13:00:00.387Z,5.40
2023-03-01T13:02:26.959Z,5.34
2023-03-01T13:04:53.782Z,5.31
2023-03-01T13:07:20.184Z,5.23
2023-03-01T13:09:46.634Z,5.50
2023-03-01T13:12:20.002Z,5.33
2023-03-01T13:14:46.739Z,5.28
2023-03-01T13:17:13.142Z,5.28
2023-03-01T13:19:39.534Z,5.37
2023-03-01T13:22:05.971Z,5.39
2023-03-01T13:24:32.501Z,5.49
2023-03-01T13:26:58.981Z,5.64
2023-03-01T13:29:25.744Z,5.69
2023-03-01T13:31:52.401Z,5.58
2023-03-01T13:34:18.909Z,5.47
2023-03-01T13:36:46.756Z,5.60
2023-03-01T13:39:14.887Z,5.63
2023-03-01T13:41:42.400Z,5.67
2023-03-01T13:44:08.812Z,5.57
2023-03-01T13:46:36.012Z,5.36
2023-03-01T13:49:02.690Z,5.28
2023-03-01T13:51:29.174Z,5.23
2023-03-01T13:53:55.637Z,5.13
2023-03-01T13:56:22.062Z,5.01
2023-03-01T13:58:48.464Z,5.11
2023-03-01T14:01:14.965Z,4.93
2023-03-01T14:03:41.602Z,4.99
2023-03-01T14:06:14.970Z,4.95
2023-03-01T14:08:42.788Z,5.26
2023-03-01T14:11:09.225Z,5.38
2023-03-01T14:13:35.648Z,5.48
2023-03-01T14:16:02.300Z,5.48
2023-03-01T14:18:28.733Z,5.45
2023-03-01T14:20:55.160Z,5.57
2023-03-01T14:23:21.575Z,5.76
2023-03-01T14:25:48.105Z,5.84
2023-03-01T14:28:14.591Z,5.88
2023-03-01T14:30:41.153Z,5.85
2023-03-01T14:33:07.659Z,5.90
2023-03-01T14:35:34.068Z,5.77
2023-03-01T14:38:00.568Z,5.89
2023-03-01T14:40:27.245Z,5.98
2023-03-01T14:42:53.797Z,5.99
2023-03-01T14:45:20.336Z,5.92
2023-03-01T14:47:46.838Z,5.99
2023-03-01T14:50:13.607Z,5.93
2023-03-01T14:52:40.078Z,6.03
2023-03-01T14:55:06.614Z,6.08
2023-03-01T14:57:32.972Z,6.07
2023-03-01T14:59:59.444Z,6.11
2023-03-01T15:02:25.873Z,5.96
2023-03-01T15:04:52.417Z,5.77
2023-03-01T15:07:18.870Z,5.91
2023-03-01T15:09:45.297Z,6.00
2023-03-01T15:12:11.690Z,6.03
2023-03-01T15:14:38.161Z,5.85
2023-03-01T15:17:05.282Z,5.71
2023-03-01T15:19:32.729Z,5.46
2023-03-01T15:21:59.401Z,5.60
2023-03-01T15:24:25.850Z,5.46
2023-03-01T15:26:52.254Z,5.49
2023-03-01T15:29:18.700Z,5.45
2023-03-01T15:31:45.275Z,5.63
2023-03-01T15:34:11.771Z,5.57
2023-03-01T15:36:38.230Z,5.61
2023-03-01T15:39:04.730Z,5.67
2023-03-01T15:41:31.178Z,5.29
2023-03-01T15:43:57.665Z,5.47
2023-03-01T15:46:24.152Z,5.62
2023-03-01T15:48:50.596Z,5.71
2023-03-01T15:51:16.977Z,5.55
2023-03-01T15:53:53.874Z,5.42
2023-03-01T15:56:20.861Z,5.52
2023-03-01T15:58:47.282Z,5.53
2023-03-01T16:01:13.806Z,5.53
2023-03-01T16:03:42.543Z,5.49
2023-03-01T16:06:09.106Z,5.42
2023-03-01T16:08:35.762Z,5.38
2023-03-01T16:11:02.434Z,5.40
2023-03-01T16:13:29.839Z,5.63
2023-03-01T16:15:56.477Z,5.67
2023-03-01T16:18:22.939Z,5.60
2023-03-01T16:20:49.758Z,5.54
2023-03-01T16:23:16.549Z,5.60
2023-03-01T16:25:43.015Z,5.59
2023-03-01T16:28:09.874Z,5.56
2023-03-01T16:30:37.390Z,5.58
2023-03-01T16:33:08.056Z,5.48
2023-03-01T16:35:36.827Z,5.46
2023-03-01T16:38:03.311Z,5.53
2023-03-01T16:40:29.863Z,5.46
2023-03-01T16:42:56.381Z,5.43
2023-03-01T16:45:24.772Z,5.39
2023-03-01T16:47:53.747Z,5.38
2023-03-01T16:50:21.747Z,5.44
2023-03-01T16:52:48.562Z,5.42
2023-03-01T16:55:16.059Z,5.42
2023-03-01T16:57:42.431Z,5.40
2023-03-01T17:00:08.893Z,5.36
2023-03-01T17:02:35.289Z,5.38
2023-03-01T17:05:02.564Z,5.39
2023-03-01T17:07:28.986Z,5.41
2023-03-01T17:09:55.612Z,5.38
2023-03-01T17:12:22.328Z,5.39
2023-03-01T17:14:50.751Z,5.38
2023-03-01T17:17:17.755Z,5.39
2023-03-01T17:19:44.572Z,5.27
2023-03-01T17:22:11.685Z,4.88
2023-03-01T17:24:38.605Z,5.06
2023-03-01T17:27:05.523Z,5.14
2023-03-01T17:29:32.187Z,4.84
2023-03-01T17:31:58.781Z,4.92
2023-03-01T17:34:25.287Z,4.93
2023-03-01T17:36:51.810Z,5.05
2023-03-01T17:39:18.347Z,4.78
2023-03-01T17:41:45.123Z,4.88
2023-03-01T17:44:12.490Z,4.95
2023-03-01T17:46:40.506Z,4.99
2023-03-01T17:49:06.970Z,5.00
2023-03-01T17:51:33.824Z,5.03
2023-03-01T17:54:00.530Z,5.02
2023-03-01T17:56:27.050Z,4.98
2023-03-01T17:58:53.568Z,4.89
2023-03-01T18:01:20.553Z,4.84
2023-03-01T18:03:47.834Z,4.80
2023-03-01T18:06:15.782Z,4.61
2023-03-01T18:08:42.752Z,4.77
2023-03-01T18:11:09.529Z,4.55
2023-03-01T18:13:36.186Z,4.58
2023-03-01T18:16:02.675Z,4.63
2023-03-01T18:18:29.399Z,4.57
2023-03-01T18:20:56.298Z,4.49
2023-03-01T18:23:23.276Z,4.41
2023-03-01T18:25:50.045Z,4.41
2023-03-01T18:28:16.810Z,4.26
2023-03-01T18:30:44.846Z,4.37
2023-03-01T18:33:11.464Z,4.17
2023-03-01T18:35:38.632Z,4.22
2023-03-01T18:38:05.530Z,4.33
2023-03-01T18:40:32.384Z,4.35
2023-03-01T18:42:59.354Z,4.09
2023-03-01T18:45:26.329Z,3.99
2023-03-01T18:47:53.134Z,4.15
2023-03-01T18:50:19.992Z,3.91
2023-03-01T18:52:46.977Z,3.88
2023-03-01T18:55:14.384Z,3.91
2023-03-01T18:57:41.645Z,3.98
2023-03-01T19:00:08.808Z,3.99
2023-03-01T19:02:40.021Z,3.87
2023-03-01T19:05:07.172Z,3.90
2023-03-01T19:07:33.894Z,4.01
2023-03-01T19:10:00.817Z,3.91
2023-03-01T19:12:27.995Z,3.91
2023-03-01T19:14:55.077Z,3.77
2023-03-01T19:17:22.154Z,3.92
2023-03-01T19:19:49.457Z,3.98
2023-03-01T19:22:16.597Z,3.45
2023-03-01T19:24:43.532Z,3.34
2023-03-01T19:27:10.724Z,3.18
2023-03-01T19:29:39.139Z,3.35
2023-03-01T19:32:05.944Z,3.46
2023-03-01T19:34:32.993Z,3.52
2023-03-01T19:37:01.989Z,3.46
2023-03-01T19:39:29.375Z,3.54
2023-03-01T19:41:55.881Z,3.56
2023-03-01T19:44:22.901Z,3.56
2023-03-01T19:46:50.115Z,3.46
2023-03-01T19:49:17.061Z,3.42
2023-03-01T19:51:46.536Z,3.43
2023-03-01T19:54:13.472Z,3.45
2023-03-01T19:56:41.747Z,3.29
2023-03-01T19:59:08.505Z,3.32
2023-03-01T20:01:35.795Z,3.32
2023-03-01T20:04:02.871Z,3.31
2023-03-01T20:06:30.575Z,3.27
2023-03-01T20:08:57.975Z,3.29
2023-03-01T20:11:25.655Z,3.30
2023-03-01T20:13:53.936Z,3.08
2023-03-01T20:16:20.990Z,3.04
2023-03-01T20:18:47.906Z,3.14
2023-03-01T20:21:24.488Z,3.15
2023-03-01T20:23:51.817Z,3.18
2023-03-01T20:26:19.468Z,2.99
2023-03-01T20:28:47.428Z,2.91
2023-03-01T20:31:14.117Z,3.01
2023-03-01T20:33:41.071Z,3.02
2023-03-01T20:36:08.247Z,3.08
2023-03-01T20:38:35.532Z,3.16
2023-03-01T20:41:02.388Z,3.02
2023-03-01T20:43:29.236Z,3.07
2023-03-01T20:45:56.307Z,3.13
2023-03-01T20:48:23.899Z,2.80
2023-03-01T20:50:51.213Z,2.95
2023-03-01T20:53:20.467Z,3.09
2023-03-01T20:55:47.398Z,3.02
2023-03-01T20:58:14.321Z,3.04
2023-03-01T21:00:40.834Z,3.10
2023-03-01T21:03:07.251Z,3.08
2023-03-01T21:05:34.107Z,3.14
2023-03-01T21:08:00.948Z,3.02
2023-03-01T21:10:28.060Z,3.04
2023-03-01T21:12:56.006Z,3.07
2023-03-01T21:15:29.077Z,3.16
2023-03-01T21:17:56.177Z,3.20
2023-03-01T21:20:23.640Z,3.23
2023-03-01T21:22:50.130Z,3.23
2023-03-01T21:25:16.552Z,3.24
2023-03-01T21:27:43.198Z,3.20
2023-03-01T21:30:09.878Z,3.18
2023-03-01T21:32:36.238Z,3.17
2023-03-01T21:35:02.897Z,3.15
2023-03-01T21:37:29.724Z,3.03
2023-03-01T21:39:56.294Z,3.14
2023-03-01T21:42:22.763Z,3.24
2023-03-01T21:44:49.180Z,2.95
2023-03-01T21:47:15.647Z,2.88
2023-03-01T21:49:42.185Z,2.87
2023-03-01T21:52:08.661Z,2.97
2023-03-01T21:54:35.157Z,2.98
2023-03-01T21:57:01.995Z,2.99
2023-03-01T21:59:28.427Z,3.06
2023-03-01T22:01:55.014Z,3.17
2023-03-01T22:04:23.830Z,3.31
2023-03-01T22:06:51.299Z,3.30
2023-03-01T22:09:17.744Z,3.33
2023-03-01T22:11:44.220Z,3.37
2023-03-01T22:14:12.109Z,3.29
2023-03-01T22:16:41.478Z,3.30
2023-03-01T22:19:07.908Z,3.22
2023-03-01T22:21:34.991Z,3.25
2023-03-01T22:24:01.481Z,3.26
2023-03-01T22:26:27.949Z,3.32
2023-03-01T22:28:54.531Z,3.31
2023-03-01T22:31:21.128Z,3.28
2023-03-01T22:33:47.564Z,3.30
2023-03-01T22:36:13.961Z,3.30
2023-03-01T22:38:40.433Z,3.28
2023-03-01T22:41:06.841Z,3.34
2023-03-01T22:43:33.607Z,3.17
2023-03-01T22:46:00.284Z,3.09
2023-03-01T22:48:26.766Z,3.18
2023-03-01T22:50:53.203Z,3.24
2023-03-01T22:53:21.231Z,3.22
2023-03-01T22:55:48.653Z,3.21
2023-03-01T22:58:15.053Z,3.28
2023-03-01T23:00:41.513Z,3.18
2023-03-01T23:03:09.466Z,3.11
2023-03-01T23:05:35.984Z,3.06
2023-03-01T23:08:02.411Z,3.12
2023-03-01T23:10:29.074Z,3.15
2023-03-01T23:12:55.656Z,3.24
2023-03-01T23:15:22.533Z,3.29
2023-03-01T23:17:49.062Z,3.34
2023-03-01T23:20:15.550Z,3.22
2023-03-01T23:22:42.102Z,3.19
2023-03-01T23:25:08.609Z,3.23
2023-03-01T23:27:35.023Z,3.18
2023-03-01T23:30:01.467Z,3.22
2023-03-01T23:32:27.866Z,3.14
2023-03-01T23:34:54.337Z,3.22
2023-03-01T23:37:21.237Z,3.25
2023-03-01T23:39:47.684Z,3.26
2023-03-01T23:42:14.226Z,3.29
2023-03-01T23:44:40.651Z,3.32
2023-03-01T23:47:07.085Z,3.38
2023-03-01T23:49:33.620Z,3.41
2023-03-01T23:52:00.051Z,3.41
2023-03-01T23:54:26.598Z,3.41
2023-03-01T23:56:56.209Z,3.41
2023-03-01T23:59:22.624Z,3.42
